Etusivu
METAR-TAF:

METAR-TAF

Lentoasemat :

Jakutskin lentoasema

Jakutsk, Venäjä

Leveyspiiri: 62-01N, Pituuspiiri: 129-43E, korkeus merenpinnasta: 103 m

Tämänhetkinen sää

Tämä raportti tehtiin 16 minuuttia sitten, kello 13.30 UTC
Tuuli 4 kn pohjoisesta
Lämpötila -4°C
Kosteus 63%
Ilmanpaine 1006 hPa
Näkyvyys 10 km tai enemmän
ei pilviä alle 1500 m:ssä eikä cumulonimbus-pilviä

METAR: UEEE 161330Z 35002MPS CAVOK M04/M10 Q1006 R23/09//60 NOSIG RMK QFE746

Aika: 22:46 (13:46 UTC)

Sääennuste

Tämä raportti tehtiin 2 tuntia ja 46 minuuttia sitten, kello 11.00 UTC
Ennuste voimassa 16. päivästä klo 12 UTC - 17. päivään klo 18 UTC
Tuuli 6 kn idästä puuskistuen 16 kn:hen
Näkyvyys 10 km tai enemmän
Hajanaisia pilviä 3000 ft:n korkeudessa, Cumulonimbus.
Hajonneita pilviä 10000 ft:n korkeudessa

TAF: UEEE 161100Z 1612/1718 10003G08MPS 9999 SCT030CB BKN100

Säähavainnot ja -ennusteet yli 4000 lentoasemalta (METAR- ja TAF-raportit).

Käytössä olevat sääasemat on merkitty karttaan keltaisilla ja punaisilla pisteillä.

Aseta hiiri pisteen päälle nähdäksesi sääaseman nimen.

Klikkaa sitten nähdäksesi säähavainnot ja -ennusteet.

Kartan vaihtaminen: klikkaa mustalla rastilla varustettuja vihreitä pisteitä, niin voit zoomata sisään; viivalla varustettua vihreää pistettä, niin voit zoomata ulos tai vihreitä nuolia, niin pääset viereisille kartoille.


METAR-TAF: